Wetterdaten: Jahr 2021
Datum Temp. A. Feuchte A. Luftdruck Regen Wind Richtung Sonnenschein UV Solar Windben
01.01.2021 3,0 C 87 % 1009,1 hPa 0,0 l/m 4,1 km/h SW 0,25 h 0,6 UV-I 45 W/m 7,7 km/h
02.01.2021 3,5 C 86 % 1013,8 hPa 0,0 l/m 3,6 km/h S-SW 0,00 h 0,5 UV-I 39 W/m 6,5 km/h
03.01.2021 2,1 C 87 % 1014,3 hPa 1,2 l/m 3,8 km/h NO 0,00 h 0,6 UV-I 46 W/m 8,9 km/h
04.01.2021 1,8 C 90 % 1016,0 hPa 0,0 l/m 4,6 km/h NO 0,00 h 0,0 UV-I 41 W/m 8,1 km/h
05.01.2021 2,3 C 92 % 1016,3 hPa 0,0 l/m 3,9 km/h NO 0,00 h 0,0 UV-I 22 W/m 8,1 km/h
06.01.2021 1,0 C 92 % 1013,6 hPa 0,0 l/m 6,3 km/h W 0,00 h 0,0 UV-I 23 W/m 12,2 km/h
07.01.2021 1,0 C 94 % 1010,8 hPa 1,6 l/m 7,0 km/h SW 0,00 h 0,5 UV-I 40 W/m 12,9 km/h
08.01.2021 0,9 C 95 % 1015,4 hPa 1,6 l/m 5,6 km/h W-SW 0,00 h 0,5 UV-I 39 W/m 10,2 km/h
09.01.2021 1,3 C 91 % 1023,1 hPa 0,0 l/m 3,9 km/h W 0,00 h 0,6 UV-I 40 W/m 7,3 km/h
10.01.2021 2,2 C 83 % 1023,4 hPa 0,0 l/m 3,7 km/h S-SW 0,00 h 0,6 UV-I 54 W/m 9,4 km/h
11.01.2021 3,1 C 84 % 1015,4 hPa 0,2 l/m 8,4 km/h SW 0,00 h 0,5 UV-I 36 W/m 17,8 km/h
12.01.2021 3,3 C 92 % 1008,0 hPa 7,6 l/m 8,0 km/h SW 0,00 h 0,0 UV-I 30 W/m 17,8 km/h
13.01.2021 2,3 C 90 % 1011,7 hPa 2,8 l/m 13,5 km/h W-SW 0,00 h 0,6 UV-I 35 W/m 26,6 km/h
14.01.2021 1,3 C 84 % 1020,1 hPa 0,0 l/m 5,8 km/h NO 1,08 h 0,8 UV-I 85 W/m 9,8 km/h
15.01.2021 -0,2 C 83 % 1027,2 hPa 0,0 l/m 5,3 km/h W-NW 0,00 h 0,6 UV-I 45 W/m 9,7 km/h
16.01.2021 -0,0 C 78 % 1022,2 hPa 0,0 l/m 5,1 km/h W 0,00 h 0,5 UV-I 48 W/m 9,8 km/h
17.01.2021 1,4 C 91 % 1018,9 hPa 0,6 l/m 4,5 km/h O 0,25 h 0,7 UV-I 70 W/m 8,1 km/h
18.01.2021 4,5 C 89 % 1019,6 hPa 1,2 l/m 11,4 km/h W-SW 0,00 h 0,6 UV-I 43 W/m 19,4 km/h
19.01.2021 6,4 C 86 % 1007,0 hPa 4,2 l/m 14,1 km/h SW 0,00 h 0,0 UV-I 23 W/m 29,1 km/h
20.01.2021 8,9 C 65 % 998,7 hPa 0,0 l/m 11,8 km/h S-SW 0,42 h 0,8 UV-I 77 W/m 21,8 km/h
21.01.2021 7,9 C 73 % 990,6 hPa 1,2 l/m 12,5 km/h SO 2,92 h 1,0 UV-I 120 W/m 25,4 km/h
22.01.2021 4,5 C 82 % 994,1 hPa 2,4 l/m 6,9 km/h SW 1,42 h 0,7 UV-I 70 W/m 13,3 km/h
23.01.2021 3,9 C 81 % 994,7 hPa 0,0 l/m 7,5 km/h O 1,83 h 0,7 UV-I 99 W/m 14,6 km/h
24.01.2021 1,3 C 91 % 997,7 hPa 7,2 l/m 7,4 km/h SW 0,00 h 0,0 UV-I 19 W/m 13,0 km/h
25.01.2021 0,9 C 83 % 1006,1 hPa 0,0 l/m 4,6 km/h SW 4,92 h 1,0 UV-I 148 W/m 10,6 km/h
26.01.2021 2,6 C 90 % 1015,2 hPa 2,0 l/m 8,9 km/h SW 0,00 h 0,6 UV-I 43 W/m 19,4 km/h
27.01.2021 3,1 C 90 % 1010,8 hPa 1,8 l/m 8,4 km/h SW 0,00 h 0,6 UV-I 44 W/m 15,8 km/h
28.01.2021 2,9 C 93 % 1002,8 hPa 4,6 l/m 6,1 km/h NO 0,00 h 0,0 UV-I 33 W/m 10,6 km/h
29.01.2021 6,6 C 93 % 993,7 hPa 11,4 l/m 13,1 km/h W-SW 0,58 h 0,5 UV-I 40 W/m 21,4 km/h
30.01.2021 0,4 C 85 % 1003,2 hPa 1,0 l/m 5,0 km/h NO 1,17 h 0,8 UV-I 99 W/m 9,3 km/h
31.01.2021 -0,4 C 80 % 1001,2 hPa 0,0 l/m 6,1 km/h NO 7,00 h 1,1 UV-I 203 W/m 13,4 km/h
01.02.2021 2,6 C 91 % 996,2 hPa 0,6 l/m 5,4 km/h NO 0,00 h 0,6 UV-I 58 W/m 9,8 km/h
02.02.2021 6,5 C 94 % 999,8 hPa 4,8 l/m 6,5 km/h SW 0,08 h 0,8 UV-I 82 W/m 13,4 km/h
03.02.2021 8,6 C 91 % 996,3 hPa 6,2 l/m 6,5 km/h SW 0,25 h 0,6 UV-I 45 W/m 12,2 km/h
04.02.2021 6,1 C 87 % 1013,3 hPa 2,4 l/m 8,2 km/h W-SW 0,58 h 0,8 UV-I 73 W/m 15,0 km/h
05.02.2021 5,9 C 87 % 1012,5 hPa 0,0 l/m 7,7 km/h O 0,00 h 0,6 UV-I 52 W/m 14,2 km/h
06.02.2021 1,5 C 88 % 1009,6 hPa 0,0 l/m 9,8 km/h NO 0,00 h 0,5 UV-I 48 W/m 18,6 km/h
07.02.2021 -4,7 C 92 % 1002,1 hPa 9,6 l/m 9,9 km/h O-NO 0,00 h 0,7 UV-I 53 W/m 18,2 km/h
08.02.2021 -7,8 C 92 % 1002,7 hPa 6,2 l/m 7,1 km/h NO 4,58 h 1,2 UV-I 157 W/m 12,6 km/h
09.02.2021 -9,8 C 89 % 1008,3 hPa 0,4 l/m 3,9 km/h O 3,75 h 1,3 UV-I 170 W/m 6,5 km/h
10.02.2021 -8,3 C 91 % 1016,2 hPa 0,0 l/m 2,8 km/h W 0,67 h 1,0 UV-I 101 W/m 5,3 km/h
11.02.2021 -6,6 C 87 % 1030,7 hPa 0,0 l/m 2,9 km/h W-NW 4,25 h 1,4 UV-I 170 W/m 4,9 km/h
12.02.2021 -6,5 C 81 % 1036,7 hPa 0,0 l/m 6,6 km/h NO 7,75 h 1,6 UV-I 259 W/m 11,7 km/h
13.02.2021 -5,9 C 75 % 1041,8 hPa 0,0 l/m 6,6 km/h O 8,25 h 1,6 UV-I 260 W/m 11,4 km/h
14.02.2021 -2,3 C 63 % 1038,1 hPa 0,0 l/m 7,9 km/h O-NO 7,50 h 1,6 UV-I 245 W/m 15,4 km/h
15.02.2021 2,0 C 77 % 1024,6 hPa 3,8 l/m 6,6 km/h O 0,00 h 1,0 UV-I 76 W/m 13,0 km/h
16.02.2021 6,6 C 82 % 1013,9 hPa 0,0 l/m 6,2 km/h O 2,42 h 1,5 UV-I 143 W/m 11,8 km/h
17.02.2021 9,0 C 80 % 1016,7 hPa 1,8 l/m 10,9 km/h SW 0,17 h 0,9 UV-I 94 W/m 21,4 km/h
18.02.2021 8,2 C 77 % 1010,4 hPa 0,6 l/m 12,5 km/h SO 0,33 h 1,0 UV-I 117 W/m 24,6 km/h
19.02.2021 7,9 C 76 % 1016,8 hPa 0,2 l/m 6,8 km/h SW 7,50 h 1,5 UV-I 245 W/m 14,2 km/h
20.02.2021 12,6 C 66 % 1014,5 hPa 0,0 l/m 13,7 km/h O-SO 6,42 h 1,5 UV-I 224 W/m 23,8 km/h
21.02.2021 12,4 C 61 % 1015,4 hPa 0,0 l/m 6,9 km/h O 8,25 h 1,8 UV-I 270 W/m 14,6 km/h
22.02.2021 14,4 C 50 % 1021,3 hPa 0,0 l/m 9,3 km/h O 5,75 h 1,4 UV-I 215 W/m 17,0 km/h
23.02.2021 14,9 C 64 % 1030,3 hPa 0,0 l/m 7,3 km/h O 5,17 h 1,4 UV-I 190 W/m 13,8 km/h
24.02.2021 16,0 C 62 % 1028,3 hPa 0,0 l/m 6,2 km/h SO 8,00 h 1,7 UV-I 255 W/m 13,8 km/h
25.02.2021 15,0 C 61 % 1025,8 hPa 0,0 l/m 2,7 km/h O-SO 6,92 h 1,8 UV-I 252 W/m 7,3 km/h
26.02.2021 7,2 C 75 % 1033,0 hPa 2,8 l/m 7,2 km/h W 2,33 h 1,3 UV-I 174 W/m 13,8 km/h
27.02.2021 3,9 C 92 % 1039,6 hPa 0,0 l/m 4,6 km/h W-SW 0,00 h 0,7 UV-I 64 W/m 8,0 km/h
28.02.2021 5,6 C 87 % 1036,6 hPa 0,0 l/m 3,4 km/h NO 5,17 h 1,5 UV-I 228 W/m 6,1 km/h
01.03.2021 5,3 C 87 % 1033,6 hPa 0,0 l/m 6,0 km/h NO 4,33 h 1,4 UV-I 199 W/m 10,9 km/h
02.03.2021 9,4 C 64 % 1030,9 hPa 0,0 l/m 7,0 km/h O 8,83 h 1,9 UV-I 308 W/m 14,2 km/h
03.03.2021 10,0 C 68 % 1025,4 hPa 0,0 l/m 4,3 km/h W-SW 7,00 h 1,5 UV-I 222 W/m 8,1 km/h
04.03.2021 3,2 C 94 % 1019,2 hPa 0,4 l/m 7,0 km/h W 0,00 h 0,0 UV-I 29 W/m 11,8 km/h
05.03.2021 1,8 C 69 % 1029,6 hPa 0,0 l/m 3,6 km/h W-NW 6,33 h 1,7 UV-I 264 W/m 8,9 km/h
06.03.2021 2,4 C 70 % 1031,9 hPa 0,0 l/m 2,0 km/h S 7,00 h 1,8 UV-I 278 W/m 4,1 km/h
07.03.2021 2,0 C 72 % 1023,8 hPa 0,0 l/m 5,3 km/h W-SW 3,42 h 1,3 UV-I 174 W/m 8,9 km/h
08.03.2021 3,3 C 83 % 1021,8 hPa 0,0 l/m 4,6 km/h SW 3,33 h 1,5 UV-I 193 W/m 7,3 km/h
09.03.2021 3,6 C 93 % 1017,3 hPa 10,4 l/m 3,4 km/h SO 0,00 h 0,5 UV-I 48 W/m 6,1 km/h
10.03.2021 6,6 C 80 % 1013,9 hPa 0,0 l/m 10,8 km/h O-SO 1,67 h 1,3 UV-I 157 W/m 22,2 km/h
11.03.2021 8,7 C 77 % 998,0 hPa 7,2 l/m 14,3 km/h SW 2,25 h 1,5 UV-I 177 W/m 26,3 km/h
12.03.2021 7,1 C 73 % 1003,6 hPa 9,4 l/m 14,7 km/h SW 4,08 h 1,5 UV-I 220 W/m 29,5 km/h
13.03.2021 5,5 C 83 % 995,4 hPa 3,4 l/m 18,0 km/h SW 2,00 h 1,3 UV-I 162 W/m 33,5 km/h
14.03.2021 5,4 C 82 % 1008,7 hPa 1,0 l/m 12,8 km/h W-SW 1,25 h 1,1 UV-I 133 W/m 21,4 km/h
15.03.2021 5,3 C 85 % 1012,2 hPa 7,8 l/m 10,4 km/h W-SW 0,83 h 1,1 UV-I 126 W/m 19,0 km/h
16.03.2021 5,1 C 76 % 1021,3 hPa 0,0 l/m 5,6 km/h W 3,17 h 1,7 UV-I 202 W/m 10,9 km/h
17.03.2021 3,8 C 78 % 1024,8 hPa 0,0 l/m 4,2 km/h W-NW 1,33 h 1,1 UV-I 127 W/m 8,9 km/h
18.03.2021 3,0 C 88 % 1021,0 hPa 0,0 l/m 5,0 km/h W 1,25 h 1,5 UV-I 156 W/m 10,1 km/h
19.03.2021 3,3 C 74 % 1024,9 hPa 0,0 l/m 5,6 km/h NO 6,67 h 2,0 UV-I 314 W/m 13,8 km/h
20.03.2021 3,1 C 58 % 1026,3 hPa 0,0 l/m 5,6 km/h NO 7,33 h 1,9 UV-I 265 W/m 11,0 km/h
21.03.2021 5,4 C 76 % 1020,3 hPa 0,2 l/m 11,0 km/h W-SW 0,67 h 1,3 UV-I 138 W/m 22,2 km/h
22.03.2021 5,4 C 84 % 1023,8 hPa 0,6 l/m 6,1 km/h W 0,33 h 1,0 UV-I 93 W/m 11,4 km/h
23.03.2021 7,6 C 75 % 1024,6 hPa 0,0 l/m 5,2 km/h SW 1,33 h 1,6 UV-I 177 W/m 10,5 km/h
24.03.2021 10,1 C 67 % 1021,4 hPa 0,0 l/m 2,1 km/h W-SW 9,83 h 2,5 UV-I 358 W/m 4,9 km/h
25.03.2021 10,1 C 74 % 1019,8 hPa 0,0 l/m 6,1 km/h W 6,33 h 1,8 UV-I 257 W/m 10,6 km/h
26.03.2021 12,8 C 59 % 1015,2 hPa 0,0 l/m 5,8 km/h S 7,33 h 2,3 UV-I 325 W/m 10,1 km/h
27.03.2021 5,4 C 75 % 1022,3 hPa 6,2 l/m 10,1 km/h W-SW 2,42 h 1,5 UV-I 175 W/m 19,4 km/h
28.03.2021 10,5 C 63 % 1026,3 hPa 0,0 l/m 8,9 km/h S-SW 1,83 h 1,6 UV-I 182 W/m 16,2 km/h
29.03.2021 15,5 C 41 % 1028,6 hPa 0,0 l/m 7,7 km/h S-SW 9,50 h 2,8 UV-I 401 W/m 14,3 km/h
30.03.2021 15,2 C 37 % 1029,1 hPa 0,0 l/m 4,8 km/h S 10,67 h 2,9 UV-I 398 W/m 8,5 km/h
31.03.2021 18,1 C 39 % 1020,3 hPa 0,0 l/m 2,2 km/h O 10,75 h 2,9 UV-I 392 W/m 4,1 km/h
01.04.2021 11,3 C 67 % 1020,3 hPa 0,0 l/m 8,3 km/h W 9,83 h 2,5 UV-I 360 W/m 16,6 km/h
02.04.2021 6,3 C 74 % 1023,1 hPa 0,0 l/m 10,3 km/h W 0,92 h 1,4 UV-I 143 W/m 19,4 km/h
03.04.2021 7,2 C 67 % 1025,3 hPa 0,0 l/m 6,9 km/h W 3,92 h 1,9 UV-I 238 W/m 15,4 km/h
04.04.2021 5,2 C 76 % 1020,5 hPa 0,0 l/m 9,1 km/h W-SW 0,08 h 1,0 UV-I 105 W/m 17,0 km/h
05.04.2021 1,8 C 83 % 1007,8 hPa 2,8 l/m 15,4 km/h W-SW 2,17 h 1,4 UV-I 158 W/m 27,5 km/h
06.04.2021 1,2 C 87 % 1009,5 hPa 3,2 l/m 14,0 km/h W-SW 2,75 h 1,9 UV-I 240 W/m 23,8 km/h
07.04.2021 2,1 C 88 % 1015,3 hPa 3,2 l/m 14,0 km/h W-SW 0,42 h 1,0 UV-I 109 W/m 22,2 km/h
08.04.2021 4,0 C 68 % 1021,9 hPa 0,0 l/m 8,7 km/h W-SW 2,83 h 1,6 UV-I 205 W/m 15,8 km/h
09.04.2021 9,3 C 59 % 1013,4 hPa 0,0 l/m 7,7 km/h W-SW 4,75 h 2,2 UV-I 318 W/m 15,8 km/h
10.04.2021 8,8 C 85 % 1011,1 hPa 2,0 l/m 8,7 km/h O-NO 0,83 h 1,6 UV-I 165 W/m 18,2 km/h
11.04.2021 5,9 C 88 % 1012,8 hPa 6,2 l/m 8,3 km/h W 0,00 h 0,7 UV-I 54 W/m 15,8 km/h
12.04.2021 2,8 C 84 % 1026,8 hPa 0,6 l/m 5,1 km/h W 4,08 h 1,8 UV-I 248 W/m 8,5 km/h
13.04.2021 5,1 C 66 % 1030,8 hPa 0,0 l/m 5,7 km/h W-SW 5,25 h 2,3 UV-I 317 W/m 10,6 km/h
Min-Datum 10.02.21 30.03.21 22.01.21 47 Tage 01.01.21 - - - - 01.01.21
Min-Zeit 07:15 17:40 03:35 - 01:20 - - - - 01:20
Minimum -14,1 C 11 % 984,1 hPa - 0,5 km/h - - - - 0,5 km/h
Max-Datum 31.03.21 08.01.21 13.02.21 29.01.21 13.03.21 - 31.03.21 08.04.21 12.04.21 13.03.21
Max-Zeit 16:45 02:55 21:25 10:30 15:00 - 18:55 12:55 13:40 15:00
Maximum 25,3 C 96 % 1042,4 hPa 11,4 l/m 36,9 km/h
SW
- 10,67 h 5,0 UV-I 1005 W/m 72,9 km/h
SW
Durchschnitt 4,7 C 79 % 1016,7 hPa #156,6 l/m 7,4 km/h W-SW #288:50 h 1,3 UV-I 150 W/m 14,0 km/h

Durchschnitt Minimum Temp.1,9 C
Durchschnitt Maximum Temp.7,7 C

Jahr Standard-Abweichung:   + 4,69 K
Jahr Normal Wert:    0,00 C
Eistage (Tmax < 0C) :7
Frosttage (Tmin < 0C) :25
Kalte Tage (Tmax < 10C) :70
Sommertage (Tmax >= 25C) :1
Heie Tage (Tmax >= 30C) :0

Regen Tage
> 0,0 l/m45
> 2,0 l/m25
> 20,0 l/m0
Jahr Standard-Abweichung:   + 156,6 l/m
Jahr Normal Wert:    0,0 l/m

VerteilungWindrichtung
Windstille1,4 %
N-NO2,0 %
NO8,1 %
O-NO7,0 %
O7,7 %
O-SO5,5 %
SO3,8 %
S-SO4,1 %
S4,5 %
S-SW7,0 %
SW13,0 %
W-SW15,0 %
W11,9 %
W-NW5,9 %
NW2,7 %
N-NW1,0 %
N0,8 %